10°C Temp
8°C Dewpoint
88% Humidity
Temperature
13 KM/H
8 MPH
7 KTS
360°
Due North

Wind Speed
Clear
Conditions
Pressure 1020.92 (hPa) - 30.15 (in)
Visibility 6.2 (mi) - 10.0 (km)

Current Conditions
LEJR
Location 25(km)
Metar :LEJR 280700Z 36007KT CAVOK 10/08 Q1021
Wed 28th October 09:00 am

Airport
  Metar Aviation API Data Provided by https://www.checkwx.com/ PHP scripts by weather34.com ©2020